createdAt,value
2022-09-12T00:00:08.351Z,15.60
2022-09-12T00:02:34.853Z,15.50
2022-09-12T00:05:01.367Z,15.50
2022-09-12T00:07:28.097Z,15.40
2022-09-12T00:09:54.814Z,15.40
2022-09-12T00:12:21.320Z,15.50
2022-09-12T00:14:47.823Z,15.40
2022-09-12T00:17:14.404Z,15.40
2022-09-12T00:19:40.934Z,15.40
2022-09-12T00:22:07.818Z,15.30
2022-09-12T00:24:34.391Z,15.20
2022-09-12T00:27:00.935Z,15.20
2022-09-12T00:29:27.644Z,15.20
2022-09-12T00:31:54.261Z,15.30
2022-09-12T00:34:20.930Z,15.20
2022-09-12T00:36:47.682Z,15.20
2022-09-12T00:39:17.667Z,15.10
2022-09-12T00:41:44.647Z,15.10
2022-09-12T00:44:23.537Z,15.10
2022-09-12T00:46:53.190Z,15.10
2022-09-12T00:49:38.702Z,15.00
2022-09-12T00:52:09.814Z,14.90
2022-09-12T00:54:38.720Z,14.90
2022-09-12T00:57:06.518Z,14.90
2022-09-12T00:59:41.775Z,14.70
2022-09-12T01:02:08.857Z,14.90
2022-09-12T01:04:36.217Z,14.90
2022-09-12T01:07:04.115Z,14.90
2022-09-12T01:09:30.712Z,14.90
2022-09-12T01:11:57.341Z,14.90
2022-09-12T01:14:23.999Z,14.90
2022-09-12T01:16:50.944Z,14.80
2022-09-12T01:19:18.174Z,14.80
2022-09-12T01:22:03.407Z,14.80
2022-09-12T01:24:48.168Z,14.80
2022-09-12T01:27:14.632Z,14.80
2022-09-12T01:29:44.174Z,14.70
2022-09-12T01:32:29.462Z,14.60
2022-09-12T01:35:04.840Z,14.70
2022-09-12T01:37:37.819Z,14.70
2022-09-12T01:40:07.406Z,14.60
2022-09-12T01:42:40.414Z,14.50
2022-09-12T01:45:07.001Z,14.50
2022-09-12T01:47:41.231Z,14.40
2022-09-12T01:50:13.363Z,14.50
2022-09-12T01:52:47.231Z,14.40
2022-09-12T01:55:17.887Z,14.40
2022-09-12T01:57:48.189Z,14.30
2022-09-12T02:00:15.059Z,14.40
2022-09-12T02:02:51.851Z,14.30
2022-09-12T02:05:29.559Z,14.40
2022-09-12T02:08:06.633Z,14.40
2022-09-12T02:10:35.132Z,14.40
2022-09-12T02:13:07.554Z,14.40
2022-09-12T02:15:37.783Z,14.40
2022-09-12T02:18:05.980Z,14.30
2022-09-12T02:20:47.886Z,14.30
2022-09-12T02:23:23.531Z,14.20
2022-09-12T02:25:52.563Z,14.30
2022-09-12T02:28:23.288Z,14.20
2022-09-12T02:31:10.447Z,14.20
2022-09-12T02:33:48.547Z,14.10
2022-09-12T02:36:24.213Z,14.20
2022-09-12T02:38:50.923Z,14.30
2022-09-12T02:41:19.002Z,14.30
2022-09-12T02:43:46.274Z,14.20
2022-09-12T02:46:16.453Z,14.20
2022-09-12T02:48:43.428Z,14.20
2022-09-12T02:51:11.438Z,14.10
2022-09-12T02:53:38.255Z,14.20
2022-09-12T02:56:07.183Z,14.10
2022-09-12T02:58:33.979Z,14.10
2022-09-12T03:01:09.589Z,14.10
2022-09-12T03:03:47.539Z,14.10
2022-09-12T03:06:32.444Z,14.20
2022-09-12T03:09:00.266Z,14.20
2022-09-12T03:11:47.135Z,14.10
2022-09-12T03:14:31.853Z,14.10
2022-09-12T03:17:11.306Z,14.10
2022-09-12T03:19:37.957Z,14.00
2022-09-12T03:22:18.851Z,13.90
2022-09-12T03:24:45.499Z,14.10
2022-09-12T03:27:21.317Z,14.10
2022-09-12T03:29:48.804Z,14.00
2022-09-12T03:32:15.653Z,14.00
2022-09-12T03:34:42.366Z,14.00
2022-09-12T03:37:09.183Z,14.00
2022-09-12T03:39:35.952Z,14.00
2022-09-12T03:42:02.622Z,14.00
2022-09-12T03:44:29.287Z,14.00
2022-09-12T03:46:55.975Z,14.00
2022-09-12T03:49:22.691Z,14.00
2022-09-12T03:51:49.236Z,14.00
2022-09-12T03:54:16.226Z,14.00
2022-09-12T03:56:42.907Z,13.90
2022-09-12T03:59:09.509Z,13.90
2022-09-12T04:01:37.548Z,13.90
2022-09-12T04:04:04.234Z,13.90
2022-09-12T04:06:31.208Z,13.90
2022-09-12T04:08:58.528Z,13.90
2022-09-12T04:11:25.351Z,13.90
2022-09-12T04:13:51.940Z,13.80
2022-09-12T04:16:19.051Z,13.90
2022-09-12T04:18:46.606Z,14.00
2022-09-12T04:21:15.058Z,14.00
2022-09-12T04:23:42.008Z,14.10
2022-09-12T04:26:08.891Z,14.10
2022-09-12T04:28:36.062Z,14.00
2022-09-12T04:31:04.767Z,13.90
2022-09-12T04:33:31.657Z,13.90
2022-09-12T04:36:02.880Z,13.90
2022-09-12T04:38:29.607Z,13.90
2022-09-12T04:40:57.196Z,13.90
2022-09-12T04:43:24.050Z,13.90
2022-09-12T04:45:50.608Z,14.00
2022-09-12T04:48:17.152Z,14.00
2022-09-12T04:50:43.899Z,14.00
2022-09-12T04:53:10.483Z,14.00
2022-09-12T04:55:36.997Z,13.90
2022-09-12T04:58:03.534Z,14.00
2022-09-12T05:00:30.082Z,14.00
2022-09-12T05:02:56.807Z,14.00
2022-09-12T05:05:23.595Z,14.00
2022-09-12T05:07:50.277Z,14.10
2022-09-12T05:10:16.824Z,14.10
2022-09-12T05:12:43.339Z,14.20
2022-09-12T05:15:09.972Z,14.20
2022-09-12T05:17:36.447Z,14.10
2022-09-12T05:20:03.356Z,14.10
2022-09-12T05:22:29.899Z,14.10
2022-09-12T05:24:56.367Z,14.10
2022-09-12T05:27:23.053Z,14.20
2022-09-12T05:29:49.526Z,14.20
2022-09-12T05:32:16.284Z,14.20
2022-09-12T05:34:42.781Z,14.20
2022-09-12T05:37:09.496Z,14.20
2022-09-12T05:39:36.074Z,14.20
2022-09-12T05:42:03.867Z,14.20
2022-09-12T05:44:31.094Z,14.20
2022-09-12T05:46:57.823Z,14.20
2022-09-12T05:49:24.655Z,14.30
2022-09-12T05:51:51.576Z,14.20
2022-09-12T05:54:20.479Z,14.30
2022-09-12T05:56:47.442Z,14.30
2022-09-12T05:59:18.296Z,14.40
2022-09-12T06:01:45.680Z,14.30
2022-09-12T06:04:12.310Z,14.40
2022-09-12T06:06:41.855Z,14.40
2022-09-12T06:09:08.735Z,14.40
2022-09-12T06:11:37.258Z,14.40
2022-09-12T06:14:04.091Z,14.40
2022-09-12T06:16:32.123Z,14.40
2022-09-12T06:19:00.811Z,14.40
2022-09-12T06:21:28.366Z,14.40
2022-09-12T06:23:55.348Z,14.40
2022-09-12T06:26:23.490Z,14.50
2022-09-12T06:28:50.547Z,14.40
2022-09-12T06:31:18.813Z,14.40
2022-09-12T06:33:46.822Z,14.50
2022-09-12T06:36:16.317Z,14.40
2022-09-12T06:38:43.236Z,14.50
2022-09-12T06:41:12.166Z,14.50
2022-09-12T06:43:39.330Z,14.60
2022-09-12T06:46:06.486Z,14.60
2022-09-12T06:48:33.542Z,14.60
2022-09-12T06:51:01.433Z,14.80
2022-09-12T06:53:30.364Z,14.80
2022-09-12T06:55:56.971Z,14.80
2022-09-12T06:58:23.942Z,14.90
2022-09-12T07:00:50.616Z,14.90
2022-09-12T07:03:17.444Z,15.00
2022-09-12T07:05:44.907Z,15.00
2022-09-12T07:08:11.611Z,15.10
2022-09-12T07:10:38.343Z,15.20
2022-09-12T07:13:04.948Z,15.30
2022-09-12T07:15:31.465Z,15.40
2022-09-12T07:17:58.143Z,15.50
2022-09-12T07:20:24.972Z,15.60
2022-09-12T07:22:51.860Z,15.60
2022-09-12T07:25:18.452Z,15.70
2022-09-12T07:27:48.172Z,15.80
2022-09-12T07:30:17.750Z,15.80
2022-09-12T07:32:44.270Z,15.90
2022-09-12T07:35:11.083Z,15.90
2022-09-12T07:37:37.599Z,16.00
2022-09-12T07:40:04.251Z,16.20
2022-09-12T07:42:31.294Z,16.30
2022-09-12T07:44:57.871Z,16.40
2022-09-12T07:47:24.643Z,16.40
2022-09-12T07:49:52.841Z,16.50
2022-09-12T07:52:19.520Z,16.60
2022-09-12T07:54:46.095Z,16.70
2022-09-12T07:57:12.570Z,16.70
2022-09-12T07:59:52.470Z,16.70
2022-09-12T08:02:19.537Z,16.80
2022-09-12T08:04:47.117Z,16.90
2022-09-12T08:07:13.604Z,17.00
2022-09-12T08:09:40.130Z,17.10
2022-09-12T08:12:06.696Z,17.10
2022-09-12T08:14:33.194Z,17.20
2022-09-12T08:16:59.693Z,17.30
2022-09-12T08:19:26.386Z,17.30
2022-09-12T08:21:52.967Z,17.40
2022-09-12T08:24:19.510Z,17.50
2022-09-12T08:26:46.157Z,17.60
2022-09-12T08:29:12.707Z,17.70
2022-09-12T08:31:41.405Z,17.80
2022-09-12T08:34:08.138Z,17.90
2022-09-12T08:36:35.471Z,18.00
2022-09-12T08:39:03.394Z,18.10
2022-09-12T08:41:37.763Z,18.20
2022-09-12T08:44:16.539Z,18.30
2022-09-12T08:46:51.976Z,18.40
2022-09-12T08:49:25.636Z,18.60
2022-09-12T08:51:52.376Z,18.60
2022-09-12T08:54:21.804Z,18.70
2022-09-12T08:56:48.558Z,18.80
2022-09-12T08:59:15.567Z,18.90
2022-09-12T09:01:43.335Z,19.00
2022-09-12T09:04:24.606Z,19.10
2022-09-12T09:07:07.395Z,19.20
2022-09-12T09:09:33.896Z,19.30
2022-09-12T09:12:06.862Z,19.50
2022-09-12T09:14:51.659Z,19.50
2022-09-12T09:17:44.894Z,19.70
2022-09-12T09:20:30.175Z,19.70
2022-09-12T09:23:03.604Z,19.90
2022-09-12T09:25:50.718Z,20.00
2022-09-12T09:28:25.544Z,20.10
2022-09-12T09:30:52.313Z,20.20
2022-09-12T09:33:21.850Z,20.30
2022-09-12T09:36:08.303Z,20.40
2022-09-12T09:38:48.420Z,20.50
2022-09-12T09:41:27.433Z,20.60
2022-09-12T09:43:54.172Z,20.60
2022-09-12T09:46:20.845Z,20.60
2022-09-12T09:48:49.179Z,20.70
2022-09-12T09:51:24.604Z,20.80
2022-09-12T09:53:56.201Z,20.90
2022-09-12T09:56:28.165Z,20.90
2022-09-12T09:58:54.914Z,21.00
2022-09-12T10:01:21.805Z,21.10
2022-09-12T10:03:50.683Z,21.20
2022-09-12T10:06:20.748Z,21.20
2022-09-12T10:08:48.648Z,21.30
2022-09-12T10:11:15.319Z,21.30
2022-09-12T10:13:54.557Z,21.40
2022-09-12T10:16:23.166Z,21.50
2022-09-12T10:18:53.572Z,21.60
2022-09-12T10:21:23.636Z,21.70
2022-09-12T10:24:00.113Z,21.70
2022-09-12T10:26:30.851Z,21.70
2022-09-12T10:28:57.569Z,21.70
2022-09-12T10:31:29.573Z,21.70
2022-09-12T10:33:58.356Z,21.90
2022-09-12T10:36:25.019Z,21.90
2022-09-12T10:38:56.524Z,21.90
2022-09-12T10:41:23.527Z,22.00
2022-09-12T10:43:50.613Z,22.00
2022-09-12T10:46:17.307Z,22.00
2022-09-12T10:48:47.671Z,22.00
2022-09-12T10:51:27.067Z,22.10
2022-09-12T10:53:54.868Z,22.20
2022-09-12T10:56:22.730Z,22.20
2022-09-12T10:59:01.483Z,22.20
2022-09-12T11:01:41.030Z,22.20
2022-09-12T11:04:25.798Z,22.20
2022-09-12T11:07:06.395Z,22.30
2022-09-12T11:09:32.885Z,22.40
2022-09-12T11:12:13.569Z,22.40
2022-09-12T11:14:55.596Z,22.40
2022-09-12T11:17:28.629Z,22.50
2022-09-12T11:20:13.963Z,22.50
2022-09-12T11:22:59.172Z,22.60
2022-09-12T11:25:31.296Z,22.60
2022-09-12T11:28:23.370Z,22.60
2022-09-12T11:31:03.886Z,22.70
2022-09-12T11:33:44.313Z,22.70
2022-09-12T11:36:15.252Z,22.80
2022-09-12T11:38:41.929Z,22.80
2022-09-12T11:41:13.080Z,22.80
2022-09-12T11:43:58.902Z,22.90
2022-09-12T11:46:31.789Z,23.00
2022-09-12T11:49:06.865Z,23.00
2022-09-12T11:51:53.681Z,23.00
2022-09-12T11:54:39.182Z,23.00
2022-09-12T11:57:05.846Z,23.10
2022-09-12T11:59:40.754Z,23.10
2022-09-12T12:02:12.206Z,23.10
2022-09-12T12:04:41.944Z,23.20
2022-09-12T12:07:10.626Z,23.30
2022-09-12T12:09:46.753Z,23.30
2022-09-12T12:12:16.411Z,23.40
2022-09-12T12:14:47.990Z,23.40
2022-09-12T12:17:19.774Z,23.40
2022-09-12T12:19:47.280Z,23.30
2022-09-12T12:22:24.028Z,23.40
2022-09-12T12:25:17.223Z,23.40
2022-09-12T12:27:51.959Z,23.50
2022-09-12T12:30:30.606Z,23.50
2022-09-12T12:33:00.965Z,23.50
2022-09-12T12:35:38.743Z,23.60
2022-09-12T12:38:25.406Z,23.70
2022-09-12T12:40:52.114Z,23.70
2022-09-12T12:43:31.635Z,23.80
2022-09-12T12:46:04.158Z,23.80
2022-09-12T12:48:33.198Z,23.90
2022-09-12T12:51:35.358Z,24.00
2022-09-12T12:54:04.054Z,24.10
2022-09-12T12:56:35.315Z,24.20
2022-09-12T12:59:04.587Z,24.20
2022-09-12T13:01:31.502Z,24.30
2022-09-12T13:04:11.222Z,24.30
2022-09-12T13:06:55.068Z,24.30
2022-09-12T13:09:27.922Z,24.30
2022-09-12T13:11:57.274Z,24.40
2022-09-12T13:14:47.430Z,24.50
2022-09-12T13:17:17.090Z,24.50
2022-09-12T13:19:43.813Z,24.60
2022-09-12T13:22:10.357Z,24.80
2022-09-12T13:24:52.114Z,24.90
2022-09-12T13:27:20.322Z,24.90
2022-09-12T13:29:47.162Z,25.10
2022-09-12T13:32:14.004Z,25.20
2022-09-12T13:34:46.661Z,25.30
2022-09-12T13:37:13.356Z,25.70
2022-09-12T13:39:50.028Z,26.40
2022-09-12T13:42:32.188Z,26.70
2022-09-12T13:45:01.947Z,26.90
2022-09-12T13:47:32.580Z,26.90
2022-09-12T13:50:00.242Z,27.20
2022-09-12T13:52:29.834Z,27.30
2022-09-12T13:54:58.171Z,27.90
2022-09-12T13:57:37.551Z,28.20
2022-09-12T14:00:07.095Z,28.60
2022-09-12T14:02:34.856Z,29.30
2022-09-12T14:05:11.524Z,29.50
2022-09-12T14:07:49.597Z,29.50
2022-09-12T14:10:20.007Z,29.90
2022-09-12T14:12:50.648Z,30.40
2022-09-12T14:15:25.837Z,30.50
2022-09-12T14:17:53.696Z,30.80
2022-09-12T14:20:22.498Z,30.50
2022-09-12T14:22:52.594Z,31.20
2022-09-12T14:25:24.587Z,31.20
2022-09-12T14:27:55.175Z,31.10
2022-09-12T14:30:24.878Z,30.90
2022-09-12T14:33:09.623Z,31.10
2022-09-12T14:35:43.634Z,31.40
2022-09-12T14:38:16.576Z,31.40
2022-09-12T14:40:53.332Z,31.30
2022-09-12T14:43:27.844Z,30.80
2022-09-12T14:45:56.472Z,30.70
2022-09-12T14:48:23.127Z,31.00
2022-09-12T14:50:51.448Z,30.90
2022-09-12T14:53:17.955Z,31.20
2022-09-12T14:55:46.554Z,31.50
2022-09-12T14:58:15.175Z,31.20
2022-09-12T15:00:58.435Z,31.20
2022-09-12T15:03:26.966Z,31.20
2022-09-12T15:05:53.655Z,30.80
2022-09-12T15:08:20.267Z,30.40
2022-09-12T15:10:46.742Z,30.30
2022-09-12T15:13:14.826Z,30.70
2022-09-12T15:15:43.188Z,30.40
2022-09-12T15:18:10.108Z,30.90
2022-09-12T15:20:40.814Z,30.20
2022-09-12T15:23:10.803Z,30.30
2022-09-12T15:25:37.346Z,30.70
2022-09-12T15:28:05.983Z,31.00
2022-09-12T15:30:32.474Z,30.70
2022-09-12T15:33:00.208Z,30.30
2022-09-12T15:35:28.127Z,31.20
2022-09-12T15:37:54.617Z,31.40
2022-09-12T15:40:21.243Z,31.70
2022-09-12T15:42:47.976Z,31.70
2022-09-12T15:45:17.495Z,31.80
2022-09-12T15:47:44.305Z,31.40
2022-09-12T15:50:11.361Z,30.80
2022-09-12T15:52:37.883Z,30.70
2022-09-12T15:55:05.043Z,30.50
2022-09-12T15:57:31.537Z,30.30
2022-09-12T15:59:58.210Z,30.30
2022-09-12T16:02:24.792Z,30.60
2022-09-12T16:04:54.587Z,30.80
2022-09-12T16:07:21.887Z,30.40
2022-09-12T16:09:48.701Z,30.60
2022-09-12T16:12:15.189Z,31.30
2022-09-12T16:14:41.748Z,31.40
2022-09-12T16:17:08.339Z,31.90
2022-09-12T16:19:34.951Z,30.90
2022-09-12T16:22:01.802Z,31.00
2022-09-12T16:24:28.488Z,31.50
2022-09-12T16:26:59.173Z,32.00
2022-09-12T16:29:27.789Z,31.80
2022-09-12T16:31:54.399Z,30.70
2022-09-12T16:34:20.912Z,31.60
2022-09-12T16:36:47.481Z,32.00
2022-09-12T16:39:14.336Z,31.10
2022-09-12T16:41:42.766Z,30.30
2022-09-12T16:44:10.156Z,30.10
2022-09-12T16:46:36.723Z,29.60
2022-09-12T16:49:04.867Z,29.00
2022-09-12T16:51:33.337Z,28.50
2022-09-12T16:53:59.864Z,27.80
2022-09-12T16:56:26.407Z,27.70
2022-09-12T16:58:53.219Z,27.50
2022-09-12T17:01:21.430Z,27.40
2022-09-12T17:03:48.236Z,27.20
2022-09-12T17:06:16.614Z,27.10
2022-09-12T17:08:44.487Z,26.90
2022-09-12T17:11:34.303Z,26.60
2022-09-12T17:14:05.060Z,26.40
2022-09-12T17:16:33.726Z,26.20
2022-09-12T17:19:00.225Z,26.00
2022-09-12T17:21:26.888Z,25.90
2022-09-12T17:23:54.184Z,25.80
2022-09-12T17:26:20.794Z,25.60
2022-09-12T17:28:47.368Z,25.50
2022-09-12T17:31:14.580Z,25.40
2022-09-12T17:33:41.664Z,25.20
2022-09-12T17:36:11.031Z,25.10
2022-09-12T17:38:39.518Z,25.00
2022-09-12T17:41:10.906Z,24.90
2022-09-12T17:43:40.739Z,24.80
2022-09-12T17:46:07.810Z,24.70
2022-09-12T17:48:34.593Z,24.60
2022-09-12T17:51:11.230Z,24.50
2022-09-12T17:53:37.912Z,24.30
2022-09-12T17:56:04.876Z,24.20
2022-09-12T17:58:32.062Z,24.20
2022-09-12T18:01:24.244Z,24.00
2022-09-12T18:03:53.761Z,24.00
2022-09-12T18:06:20.263Z,23.80
2022-09-12T18:08:46.896Z,23.80
2022-09-12T18:11:13.386Z,23.70
2022-09-12T18:13:39.879Z,23.50
2022-09-12T18:16:08.018Z,23.50
2022-09-12T18:18:35.038Z,23.40
2022-09-12T18:21:02.371Z,23.20
2022-09-12T18:23:29.355Z,23.10
2022-09-12T18:25:59.640Z,23.00
2022-09-12T18:28:26.392Z,23.00
2022-09-12T18:30:52.984Z,22.90
2022-09-12T18:33:23.904Z,22.70
2022-09-12T18:35:50.910Z,22.60
2022-09-12T18:38:17.438Z,22.50
2022-09-12T18:40:43.928Z,22.40
2022-09-12T18:43:10.427Z,22.40
2022-09-12T18:45:37.267Z,22.30
2022-09-12T18:48:05.977Z,22.20
2022-09-12T18:50:32.808Z,22.10
2022-09-12T18:52:59.982Z,22.10
2022-09-12T18:55:26.700Z,22.00
2022-09-12T18:57:54.763Z,22.00
2022-09-12T19:00:21.262Z,21.90
2022-09-12T19:02:47.885Z,21.80
2022-09-12T19:05:14.520Z,21.70
2022-09-12T19:07:41.380Z,21.70
2022-09-12T19:10:08.924Z,21.60
2022-09-12T19:12:35.788Z,21.60
2022-09-12T19:15:02.873Z,21.50
2022-09-12T19:17:29.630Z,21.50
2022-09-12T19:19:56.229Z,21.50
2022-09-12T19:22:22.922Z,21.40
2022-09-12T19:24:49.387Z,21.40
2022-09-12T19:27:16.282Z,21.30
2022-09-12T19:29:42.895Z,21.30
2022-09-12T19:32:09.531Z,21.20
2022-09-12T19:34:36.212Z,21.20
2022-09-12T19:37:02.714Z,21.20
2022-09-12T19:39:29.455Z,21.20
2022-09-12T19:41:56.151Z,21.10
2022-09-12T19:44:23.659Z,21.10
2022-09-12T19:46:51.148Z,21.10
2022-09-12T19:49:18.018Z,21.00
2022-09-12T19:51:44.524Z,21.10
2022-09-12T19:54:11.155Z,21.10
2022-09-12T19:56:38.202Z,21.10
2022-09-12T19:59:04.855Z,21.10
2022-09-12T20:01:31.728Z,21.00
2022-09-12T20:03:58.750Z,21.00
2022-09-12T20:06:25.760Z,21.10
2022-09-12T20:08:52.434Z,21.10
2022-09-12T20:11:19.889Z,21.00
2022-09-12T20:13:46.811Z,21.00
2022-09-12T20:16:21.292Z,20.90
2022-09-12T20:18:52.575Z,20.90
2022-09-12T20:21:20.514Z,20.80
2022-09-12T20:23:47.078Z,20.80
2022-09-12T20:26:13.912Z,20.80
2022-09-12T20:28:41.264Z,20.70
2022-09-12T20:31:10.406Z,20.80
2022-09-12T20:33:37.291Z,20.80
2022-09-12T20:36:05.429Z,20.70
2022-09-12T20:38:32.100Z,20.70
2022-09-12T20:41:00.296Z,20.60
2022-09-12T20:43:27.007Z,20.60
2022-09-12T20:45:53.598Z,20.60
2022-09-12T20:48:20.155Z,20.60
2022-09-12T20:50:46.815Z,20.50
2022-09-12T20:53:13.539Z,20.50
2022-09-12T20:55:40.292Z,20.50
2022-09-12T20:58:06.991Z,20.40
2022-09-12T21:00:33.687Z,20.30
2022-09-12T21:03:00.484Z,20.40
2022-09-12T21:05:27.059Z,20.30
2022-09-12T21:07:53.569Z,20.30
2022-09-12T21:10:20.258Z,20.30
2022-09-12T21:12:46.804Z,20.30
2022-09-12T21:15:13.393Z,20.30
2022-09-12T21:17:40.106Z,20.30
2022-09-12T21:20:11.286Z,20.30
2022-09-12T21:22:38.139Z,20.20
2022-09-12T21:25:05.362Z,20.20
2022-09-12T21:27:32.039Z,20.30
2022-09-12T21:29:59.323Z,20.20
2022-09-12T21:32:26.091Z,20.20
2022-09-12T21:34:52.789Z,20.20
2022-09-12T21:37:19.458Z,20.20
2022-09-12T21:39:46.010Z,20.20
2022-09-12T21:42:12.697Z,20.20
2022-09-12T21:44:39.285Z,20.20
2022-09-12T21:47:05.875Z,20.20
2022-09-12T21:49:32.954Z,20.30
2022-09-12T21:51:59.541Z,20.30
2022-09-12T21:54:26.238Z,20.30
2022-09-12T21:56:53.187Z,20.40
2022-09-12T21:59:19.862Z,20.30
2022-09-12T22:01:46.610Z,20.20
2022-09-12T22:04:13.217Z,20.20
2022-09-12T22:06:39.723Z,20.30
2022-09-12T22:09:07.286Z,20.30
2022-09-12T22:11:33.835Z,20.30
2022-09-12T22:14:01.226Z,20.30
2022-09-12T22:16:27.815Z,20.30
2022-09-12T22:18:54.416Z,20.30
2022-09-12T22:21:23.160Z,20.30
2022-09-12T22:24:09.027Z,20.30
2022-09-12T22:26:40.251Z,20.20
2022-09-12T22:29:06.752Z,20.30
2022-09-12T22:31:33.615Z,20.30
2022-09-12T22:34:00.341Z,20.20
2022-09-12T22:36:30.948Z,20.30
2022-09-12T22:38:58.090Z,20.30
2022-09-12T22:41:24.623Z,20.20
2022-09-12T22:43:51.421Z,20.20
2022-09-12T22:46:17.993Z,20.20
2022-09-12T22:48:44.732Z,20.20
2022-09-12T22:51:11.695Z,20.20
2022-09-12T22:53:38.330Z,20.20
2022-09-12T22:56:05.397Z,20.20
2022-09-12T22:58:32.809Z,20.20
2022-09-12T23:00:59.656Z,20.20
2022-09-12T23:03:26.339Z,20.20
2022-09-12T23:05:53.162Z,20.10
2022-09-12T23:08:19.662Z,20.10
2022-09-12T23:10:46.729Z,20.10
2022-09-12T23:13:13.261Z,20.10
2022-09-12T23:15:39.760Z,20.10
2022-09-12T23:18:06.422Z,20.10
2022-09-12T23:20:32.914Z,20.10
2022-09-12T23:22:59.374Z,20.10
2022-09-12T23:25:26.303Z,20.10
2022-09-12T23:27:53.054Z,20.10
2022-09-12T23:30:21.272Z,20.10
2022-09-12T23:32:48.739Z,20.10
2022-09-12T23:35:17.960Z,20.10
2022-09-12T23:37:44.508Z,20.10
2022-09-12T23:40:11.452Z,20.10
2022-09-12T23:42:37.979Z,20.00
2022-09-12T23:45:04.716Z,20.10
2022-09-12T23:47:31.290Z,20.10
2022-09-12T23:49:57.772Z,20.10
2022-09-12T23:52:24.250Z,20.00
2022-09-12T23:54:50.740Z,20.00
2022-09-12T23:57:17.233Z,20.00
2022-09-12T23:59:43.705Z,20.00
